sensor_id;sensor_type;location;lat;lon;timestamp;P1;durP1;ratioP1;P2;durP2;ratioP2
26946;SDS011;14501;52.282;10.560;2024-01-15T00:02:03;11.27;;;6.18;;
26946;SDS011;14501;52.282;10.560;2024-01-15T00:04:28;11.25;;;5.50;;
26946;SDS011;14501;52.282;10.560;2024-01-15T00:06:54;13.48;;;5.05;;
26946;SDS011;14501;52.282;10.560;2024-01-15T00:09:20;11.70;;;5.60;;
26946;SDS011;14501;52.282;10.560;2024-01-15T00:11:45;9.48;;;5.50;;
26946;SDS011;14501;52.282;10.560;2024-01-15T00:14:11;10.80;;;4.60;;
26946;SDS011;14501;52.282;10.560;2024-01-15T00:16:40;10.68;;;5.05;;
26946;SDS011;14501;52.282;10.560;2024-01-15T00:19:06;9.05;;;5.22;;
26946;SDS011;14501;52.282;10.560;2024-01-15T00:21:32;13.07;;;4.85;;
26946;SDS011;14501;52.282;10.560;2024-01-15T00:23:57;9.35;;;4.78;;
26946;SDS011;14501;52.282;10.560;2024-01-15T00:26:23;10.50;;;5.15;;
26946;SDS011;14501;52.282;10.560;2024-01-15T00:28:48;13.85;;;5.30;;
26946;SDS011;14501;52.282;10.560;2024-01-15T00:31:16;12.98;;;5.72;;
26946;SDS011;14501;52.282;10.560;2024-01-15T00:33:42;8.50;;;4.40;;
26946;SDS011;14501;52.282;10.560;2024-01-15T00:36:08;11.32;;;5.47;;
26946;SDS011;14501;52.282;10.560;2024-01-15T00:38:33;11.02;;;5.45;;
26946;SDS011;14501;52.282;10.560;2024-01-15T00:40:59;10.82;;;5.50;;
26946;SDS011;14501;52.282;10.560;2024-01-15T00:43:25;8.80;;;4.97;;
26946;SDS011;14501;52.282;10.560;2024-01-15T00:45:50;13.63;;;5.25;;
26946;SDS011;14501;52.282;10.560;2024-01-15T00:48:16;9.32;;;4.00;;
26946;SDS011;14501;52.282;10.560;2024-01-15T00:50:42;9.10;;;4.82;;
26946;SDS011;14501;52.282;10.560;2024-01-15T00:53:07;11.68;;;5.10;;
26946;SDS011;14501;52.282;10.560;2024-01-15T00:55:33;11.18;;;5.20;;
26946;SDS011;14501;52.282;10.560;2024-01-15T00:57:59;11.93;;;4.88;;
26946;SDS011;14501;52.282;10.560;2024-01-15T01:00:24;12.07;;;6.20;;
26946;SDS011;14501;52.282;10.560;2024-01-15T01:02:50;10.27;;;4.93;;
26946;SDS011;14501;52.282;10.560;2024-01-15T01:05:15;7.43;;;3.38;;
26946;SDS011;14501;52.282;10.560;2024-01-15T01:07:41;9.80;;;4.28;;
26946;SDS011;14501;52.282;10.560;2024-01-15T01:10:07;11.02;;;5.15;;
26946;SDS011;14501;52.282;10.560;2024-01-15T01:12:33;10.85;;;3.53;;
26946;SDS011;14501;52.282;10.560;2024-01-15T01:14:58;7.38;;;4.32;;
26946;SDS011;14501;52.282;10.560;2024-01-15T01:17:24;9.20;;;4.15;;
26946;SDS011;14501;52.282;10.560;2024-01-15T01:19:50;6.47;;;3.70;;
26946;SDS011;14501;52.282;10.560;2024-01-15T01:22:16;10.75;;;4.40;;
26946;SDS011;14501;52.282;10.560;2024-01-15T01:24:41;8.55;;;3.42;;
26946;SDS011;14501;52.282;10.560;2024-01-15T01:27:07;7.60;;;3.75;;
26946;SDS011;14501;52.282;10.560;2024-01-15T01:29:32;7.45;;;3.97;;
26946;SDS011;14501;52.282;10.560;2024-01-15T01:31:58;8.80;;;4.47;;
26946;SDS011;14501;52.282;10.560;2024-01-15T01:34:24;7.03;;;3.65;;
26946;SDS011;14501;52.282;10.560;2024-01-15T01:36:49;5.25;;;3.40;;
26946;SDS011;14501;52.282;10.560;2024-01-15T01:39:15;6.13;;;3.75;;
26946;SDS011;14501;52.282;10.560;2024-01-15T01:41:41;5.15;;;3.50;;
26946;SDS011;14501;52.282;10.560;2024-01-15T01:44:06;8.05;;;3.67;;
26946;SDS011;14501;52.282;10.560;2024-01-15T01:46:32;3.92;;;2.72;;
26946;SDS011;14501;52.282;10.560;2024-01-15T01:49:04;9.52;;;3.72;;
26946;SDS011;14501;52.282;10.560;2024-01-15T01:51:31;4.03;;;2.70;;
26946;SDS011;14501;52.282;10.560;2024-01-15T01:53:58;7.00;;;2.80;;
26946;SDS011;14501;52.282;10.560;2024-01-15T01:56:25;8.85;;;3.50;;
26946;SDS011;14501;52.282;10.560;2024-01-15T01:58:51;6.32;;;3.35;;
26946;SDS011;14501;52.282;10.560;2024-01-15T02:01:16;5.90;;;3.42;;
26946;SDS011;14501;52.282;10.560;2024-01-15T02:03:43;6.85;;;3.05;;
26946;SDS011;14501;52.282;10.560;2024-01-15T02:06:09;4.95;;;2.78;;
26946;SDS011;14501;52.282;10.560;2024-01-15T02:08:35;4.57;;;2.20;;
26946;SDS011;14501;52.282;10.560;2024-01-15T02:11:01;6.13;;;3.25;;
26946;SDS011;14501;52.282;10.560;2024-01-15T02:13:26;4.50;;;2.50;;
26946;SDS011;14501;52.282;10.560;2024-01-15T02:15:52;4.68;;;2.78;;
26946;SDS011;14501;52.282;10.560;2024-01-15T02:18:17;5.65;;;3.38;;
26946;SDS011;14501;52.282;10.560;2024-01-15T02:20:43;8.23;;;3.38;;
26946;SDS011;14501;52.282;10.560;2024-01-15T02:23:09;6.75;;;2.92;;
26946;SDS011;14501;52.282;10.560;2024-01-15T02:25:37;3.53;;;2.28;;
26946;SDS011;14501;52.282;10.560;2024-01-15T02:28:11;4.07;;;2.63;;
26946;SDS011;14501;52.282;10.560;2024-01-15T02:30:42;4.50;;;2.47;;
26946;SDS011;14501;52.282;10.560;2024-01-15T02:33:09;5.68;;;2.53;;
26946;SDS011;14501;52.282;10.560;2024-01-15T02:35:35;7.78;;;2.95;;
26946;SDS011;14501;52.282;10.560;2024-01-15T02:38:04;5.53;;;2.53;;
26946;SDS011;14501;52.282;10.560;2024-01-15T02:40:30;5.05;;;2.30;;
26946;SDS011;14501;52.282;10.560;2024-01-15T02:42:56;3.70;;;2.22;;
26946;SDS011;14501;52.282;10.560;2024-01-15T02:45:22;6.82;;;2.13;;
26946;SDS011;14501;52.282;10.560;2024-01-15T02:47:48;4.15;;;1.92;;
26946;SDS011;14501;52.282;10.560;2024-01-15T02:50:14;5.10;;;1.80;;
26946;SDS011;14501;52.282;10.560;2024-01-15T02:52:41;5.65;;;2.00;;
26946;SDS011;14501;52.282;10.560;2024-01-15T02:55:07;6.78;;;2.13;;
26946;SDS011;14501;52.282;10.560;2024-01-15T02:57:33;3.88;;;1.85;;
26946;SDS011;14501;52.282;10.560;2024-01-15T02:59:59;8.68;;;2.42;;
26946;SDS011;14501;52.282;10.560;2024-01-15T03:02:25;2.80;;;1.95;;
26946;SDS011;14501;52.282;10.560;2024-01-15T03:04:51;6.85;;;2.17;;
26946;SDS011;14501;52.282;10.560;2024-01-15T03:07:16;3.47;;;1.75;;
26946;SDS011;14501;52.282;10.560;2024-01-15T03:09:42;3.08;;;1.42;;
26946;SDS011;14501;52.282;10.560;2024-01-15T03:12:08;5.18;;;1.45;;
26946;SDS011;14501;52.282;10.560;2024-01-15T03:14:34;4.35;;;2.03;;
26946;SDS011;14501;52.282;10.560;2024-01-15T03:17:00;10.93;;;1.77;;
26946;SDS011;14501;52.282;10.560;2024-01-15T03:19:26;7.40;;;1.95;;
26946;SDS011;14501;52.282;10.560;2024-01-15T03:21:52;6.22;;;1.40;;
26946;SDS011;14501;52.282;10.560;2024-01-15T03:24:18;2.97;;;1.77;;
26946;SDS011;14501;52.282;10.560;2024-01-15T03:26:44;1.67;;;1.10;;
26946;SDS011;14501;52.282;10.560;2024-01-15T03:29:09;4.93;;;1.40;;
26946;SDS011;14501;52.282;10.560;2024-01-15T03:31:35;3.88;;;1.30;;
26946;SDS011;14501;52.282;10.560;2024-01-15T03:34:01;4.00;;;1.63;;
26946;SDS011;14501;52.282;10.560;2024-01-15T03:36:26;4.30;;;1.20;;
26946;SDS011;14501;52.282;10.560;2024-01-15T03:38:52;2.83;;;1.85;;
26946;SDS011;14501;52.282;10.560;2024-01-15T03:41:17;2.60;;;1.38;;
26946;SDS011;14501;52.282;10.560;2024-01-15T03:43:43;1.85;;;1.08;;
26946;SDS011;14501;52.282;10.560;2024-01-15T03:46:09;2.83;;;1.35;;
26946;SDS011;14501;52.282;10.560;2024-01-15T03:48:34;5.57;;;1.30;;
26946;SDS011;14501;52.282;10.560;2024-01-15T03:51:00;9.07;;;1.20;;
26946;SDS011;14501;52.282;10.560;2024-01-15T03:53:25;3.13;;;1.30;;
26946;SDS011;14501;52.282;10.560;2024-01-15T03:55:51;5.78;;;1.33;;
26946;SDS011;14501;52.282;10.560;2024-01-15T03:58:17;2.95;;;0.70;;
26946;SDS011;14501;52.282;10.560;2024-01-15T04:00:43;3.00;;;1.15;;
26946;SDS011;14501;52.282;10.560;2024-01-15T04:03:09;1.42;;;0.68;;
26946;SDS011;14501;52.282;10.560;2024-01-15T04:05:35;1.00;;;0.90;;
26946;SDS011;14501;52.282;10.560;2024-01-15T04:08:00;2.80;;;0.98;;
26946;SDS011;14501;52.282;10.560;2024-01-15T04:10:26;3.05;;;1.13;;
26946;SDS011;14501;52.282;10.560;2024-01-15T04:12:52;1.85;;;0.80;;
26946;SDS011;14501;52.282;10.560;2024-01-15T04:15:17;5.03;;;1.05;;
26946;SDS011;14501;52.282;10.560;2024-01-15T04:17:43;5.15;;;1.20;;
26946;SDS011;14501;52.282;10.560;2024-01-15T04:20:09;2.63;;;0.90;;
26946;SDS011;14501;52.282;10.560;2024-01-15T04:22:36;3.55;;;0.82;;
26946;SDS011;14501;52.282;10.560;2024-01-15T04:25:02;4.15;;;1.10;;
26946;SDS011;14501;52.282;10.560;2024-01-15T04:27:27;1.90;;;1.27;;
26946;SDS011;14501;52.282;10.560;2024-01-15T04:29:53;4.35;;;1.27;;
26946;SDS011;14501;52.282;10.560;2024-01-15T04:32:19;2.10;;;1.15;;
26946;SDS011;14501;52.282;10.560;2024-01-15T04:34:45;7.82;;;1.17;;
26946;SDS011;14501;52.282;10.560;2024-01-15T04:37:10;3.22;;;1.38;;
26946;SDS011;14501;52.282;10.560;2024-01-15T04:39:36;1.88;;;1.40;;
26946;SDS011;14501;52.282;10.560;2024-01-15T04:42:02;2.53;;;0.77;;
26946;SDS011;14501;52.282;10.560;2024-01-15T04:44:28;1.77;;;0.90;;
26946;SDS011;14501;52.282;10.560;2024-01-15T04:46:54;9.82;;;1.50;;
26946;SDS011;14501;52.282;10.560;2024-01-15T04:49:19;3.40;;;1.08;;
26946;SDS011;14501;52.282;10.560;2024-01-15T04:51:45;1.65;;;1.25;;
26946;SDS011;14501;52.282;10.560;2024-01-15T04:54:11;2.58;;;0.95;;
26946;SDS011;14501;52.282;10.560;2024-01-15T04:56:37;1.85;;;0.95;;
26946;SDS011;14501;52.282;10.560;2024-01-15T04:59:03;6.63;;;1.38;;
26946;SDS011;14501;52.282;10.560;2024-01-15T05:01:32;4.15;;;1.42;;
26946;SDS011;14501;52.282;10.560;2024-01-15T05:03:57;5.63;;;1.38;;
26946;SDS011;14501;52.282;10.560;2024-01-15T05:06:23;1.88;;;0.90;;
26946;SDS011;14501;52.282;10.560;2024-01-15T05:08:49;5.00;;;0.82;;
26946;SDS011;14501;52.282;10.560;2024-01-15T05:11:15;1.30;;;1.17;;
26946;SDS011;14501;52.282;10.560;2024-01-15T05:13:40;1.17;;;0.80;;
26946;SDS011;14501;52.282;10.560;2024-01-15T05:16:06;3.22;;;0.70;;
26946;SDS011;14501;52.282;10.560;2024-01-15T05:18:32;7.47;;;1.40;;
26946;SDS011;14501;52.282;10.560;2024-01-15T05:20:57;2.22;;;1.10;;
26946;SDS011;14501;52.282;10.560;2024-01-15T05:23:23;2.70;;;0.60;;
26946;SDS011;14501;52.282;10.560;2024-01-15T05:25:49;3.65;;;1.02;;
26946;SDS011;14501;52.282;10.560;2024-01-15T05:28:15;1.52;;;0.68;;
26946;SDS011;14501;52.282;10.560;2024-01-15T05:30:40;1.10;;;1.00;;
26946;SDS011;14501;52.282;10.560;2024-01-15T05:33:06;3.90;;;1.20;;
26946;SDS011;14501;52.282;10.560;2024-01-15T05:35:32;8.88;;;1.13;;
26946;SDS011;14501;52.282;10.560;2024-01-15T05:37:58;1.77;;;0.80;;
26946;SDS011;14501;52.282;10.560;2024-01-15T05:40:24;5.78;;;1.02;;
26946;SDS011;14501;52.282;10.560;2024-01-15T05:42:49;0.80;;;0.70;;
26946;SDS011;14501;52.282;10.560;2024-01-15T05:45:15;2.70;;;0.93;;
26946;SDS011;14501;52.282;10.560;2024-01-15T05:47:41;0.95;;;0.95;;
26946;SDS011;14501;52.282;10.560;2024-01-15T05:50:06;1.42;;;1.10;;
26946;SDS011;14501;52.282;10.560;2024-01-15T05:52:33;2.90;;;1.17;;
26946;SDS011;14501;52.282;10.560;2024-01-15T05:54:59;1.60;;;1.27;;
26946;SDS011;14501;52.282;10.560;2024-01-15T05:57:24;5.10;;;1.25;;
26946;SDS011;14501;52.282;10.560;2024-01-15T05:59:50;1.52;;;0.88;;
26946;SDS011;14501;52.282;10.560;2024-01-15T06:02:16;1.50;;;1.10;;
26946;SDS011;14501;52.282;10.560;2024-01-15T06:04:41;5.07;;;1.52;;
26946;SDS011;14501;52.282;10.560;2024-01-15T06:07:07;5.43;;;1.10;;
26946;SDS011;14501;52.282;10.560;2024-01-15T06:09:32;1.50;;;1.25;;
26946;SDS011;14501;52.282;10.560;2024-01-15T06:11:58;2.83;;;0.90;;
26946;SDS011;14501;52.282;10.560;2024-01-15T06:14:24;10.10;;;1.55;;
26946;SDS011;14501;52.282;10.560;2024-01-15T06:16:50;5.45;;;1.15;;
26946;SDS011;14501;52.282;10.560;2024-01-15T06:19:15;4.57;;;1.35;;
26946;SDS011;14501;52.282;10.560;2024-01-15T06:21:41;2.33;;;0.90;;
26946;SDS011;14501;52.282;10.560;2024-01-15T06:24:07;4.63;;;1.17;;
26946;SDS011;14501;52.282;10.560;2024-01-15T06:26:34;1.50;;;0.90;;
26946;SDS011;14501;52.282;10.560;2024-01-15T06:29:00;3.72;;;1.08;;
26946;SDS011;14501;52.282;10.560;2024-01-15T06:31:26;2.15;;;1.10;;
26946;SDS011;14501;52.282;10.560;2024-01-15T06:33:52;2.53;;;1.00;;
26946;SDS011;14501;52.282;10.560;2024-01-15T06:36:17;6.45;;;1.85;;
26946;SDS011;14501;52.282;10.560;2024-01-15T06:38:43;1.83;;;1.15;;
26946;SDS011;14501;52.282;10.560;2024-01-15T06:41:09;3.00;;;1.42;;
26946;SDS011;14501;52.282;10.560;2024-01-15T06:43:35;1.90;;;1.42;;
26946;SDS011;14501;52.282;10.560;2024-01-15T06:46:00;1.45;;;1.30;;
26946;SDS011;14501;52.282;10.560;2024-01-15T06:48:26;2.85;;;1.95;;
26946;SDS011;14501;52.282;10.560;2024-01-15T06:50:52;5.53;;;1.42;;
26946;SDS011;14501;52.282;10.560;2024-01-15T06:53:17;5.10;;;1.70;;
26946;SDS011;14501;52.282;10.560;2024-01-15T06:55:43;2.20;;;1.63;;
26946;SDS011;14501;52.282;10.560;2024-01-15T06:58:09;5.05;;;1.15;;
26946;SDS011;14501;52.282;10.560;2024-01-15T07:00:35;1.52;;;1.35;;
26946;SDS011;14501;52.282;10.560;2024-01-15T07:03:00;4.18;;;1.30;;
26946;SDS011;14501;52.282;10.560;2024-01-15T07:05:26;1.80;;;1.02;;
26946;SDS011;14501;52.282;10.560;2024-01-15T07:07:51;1.55;;;1.45;;
26946;SDS011;14501;52.282;10.560;2024-01-15T07:10:17;1.73;;;1.20;;
26946;SDS011;14501;52.282;10.560;2024-01-15T07:12:43;2.63;;;1.38;;
26946;SDS011;14501;52.282;10.560;2024-01-15T07:15:09;2.05;;;1.20;;
26946;SDS011;14501;52.282;10.560;2024-01-15T07:17:35;1.40;;;0.90;;
26946;SDS011;14501;52.282;10.560;2024-01-15T07:20:04;2.72;;;1.52;;
26946;SDS011;14501;52.282;10.560;2024-01-15T07:22:33;2.13;;;1.38;;
26946;SDS011;14501;52.282;10.560;2024-01-15T07:25:00;3.30;;;1.60;;
26946;SDS011;14501;52.282;10.560;2024-01-15T07:27:26;13.90;;;3.08;;
26946;SDS011;14501;52.282;10.560;2024-01-15T07:29:52;3.78;;;1.30;;
26946;SDS011;14501;52.282;10.560;2024-01-15T07:32:17;6.97;;;2.92;;
26946;SDS011;14501;52.282;10.560;2024-01-15T07:34:43;4.85;;;1.55;;
26946;SDS011;14501;52.282;10.560;2024-01-15T07:37:09;3.03;;;2.00;;
26946;SDS011;14501;52.282;10.560;2024-01-15T07:39:34;2.90;;;1.02;;
26946;SDS011;14501;52.282;10.560;2024-01-15T07:42:00;2.50;;;1.60;;
26946;SDS011;14501;52.282;10.560;2024-01-15T07:44:26;2.10;;;1.40;;
26946;SDS011;14501;52.282;10.560;2024-01-15T07:46:51;4.75;;;1.40;;
26946;SDS011;14501;52.282;10.560;2024-01-15T07:49:17;5.28;;;1.85;;
26946;SDS011;14501;52.282;10.560;2024-01-15T07:51:43;5.90;;;2.15;;
26946;SDS011;14501;52.282;10.560;2024-01-15T07:54:09;1.50;;;1.33;;
26946;SDS011;14501;52.282;10.560;2024-01-15T07:59:22;3.92;;;1.88;;
26946;SDS011;14501;52.282;10.560;2024-01-15T08:01:48;4.35;;;1.42;;
26946;SDS011;14501;52.282;10.560;2024-01-15T08:04:13;4.18;;;1.73;;
26946;SDS011;14501;52.282;10.560;2024-01-15T08:06:39;3.47;;;1.75;;
26946;SDS011;14501;52.282;10.560;2024-01-15T08:09:05;1.45;;;1.35;;
26946;SDS011;14501;52.282;10.560;2024-01-15T08:11:31;2.60;;;1.60;;
26946;SDS011;14501;52.282;10.560;2024-01-15T08:13:57;4.22;;;1.33;;
26946;SDS011;14501;52.282;10.560;2024-01-15T08:16:23;3.97;;;1.60;;
26946;SDS011;14501;52.282;10.560;2024-01-15T08:18:50;4.82;;;1.30;;
26946;SDS011;14501;52.282;10.560;2024-01-15T08:21:15;6.50;;;1.15;;
26946;SDS011;14501;52.282;10.560;2024-01-15T08:23:41;2.13;;;1.52;;
26946;SDS011;14501;52.282;10.560;2024-01-15T08:26:07;4.47;;;1.67;;
26946;SDS011;14501;52.282;10.560;2024-01-15T08:28:34;5.00;;;1.50;;
26946;SDS011;14501;52.282;10.560;2024-01-15T08:30:59;3.00;;;1.88;;
26946;SDS011;14501;52.282;10.560;2024-01-15T08:33:25;6.18;;;1.50;;
26946;SDS011;14501;52.282;10.560;2024-01-15T08:35:51;2.50;;;1.33;;
26946;SDS011;14501;52.282;10.560;2024-01-15T08:38:16;3.15;;;1.80;;
26946;SDS011;14501;52.282;10.560;2024-01-15T08:40:43;6.25;;;1.73;;
26946;SDS011;14501;52.282;10.560;2024-01-15T08:43:09;2.80;;;1.58;;
26946;SDS011;14501;52.282;10.560;2024-01-15T08:45:35;2.97;;;1.60;;
26946;SDS011;14501;52.282;10.560;2024-01-15T08:48:00;3.42;;;1.60;;
26946;SDS011;14501;52.282;10.560;2024-01-15T08:50:27;4.32;;;1.90;;
26946;SDS011;14501;52.282;10.560;2024-01-15T08:52:52;4.35;;;1.30;;
26946;SDS011;14501;52.282;10.560;2024-01-15T08:55:18;2.72;;;1.73;;
26946;SDS011;14501;52.282;10.560;2024-01-15T08:57:44;4.20;;;1.90;;
26946;SDS011;14501;52.282;10.560;2024-01-15T09:00:09;2.85;;;1.70;;
26946;SDS011;14501;52.282;10.560;2024-01-15T09:02:35;3.45;;;1.73;;
26946;SDS011;14501;52.282;10.560;2024-01-15T09:05:01;3.05;;;1.73;;
26946;SDS011;14501;52.282;10.560;2024-01-15T09:07:29;4.13;;;1.95;;
26946;SDS011;14501;52.282;10.560;2024-01-15T09:09:54;1.50;;;1.40;;
26946;SDS011;14501;52.282;10.560;2024-01-15T09:12:20;3.67;;;1.60;;
26946;SDS011;14501;52.282;10.560;2024-01-15T09:14:47;4.88;;;1.33;;
26946;SDS011;14501;52.282;10.560;2024-01-15T09:17:12;2.63;;;1.25;;
26946;SDS011;14501;52.282;10.560;2024-01-15T09:19:38;1.65;;;1.02;;
26946;SDS011;14501;52.282;10.560;2024-01-15T09:22:04;2.55;;;1.30;;
26946;SDS011;14501;52.282;10.560;2024-01-15T09:24:30;2.60;;;1.25;;
26946;SDS011;14501;52.282;10.560;2024-01-15T09:26:56;2.78;;;1.50;;
26946;SDS011;14501;52.282;10.560;2024-01-15T09:29:21;1.55;;;1.27;;
26946;SDS011;14501;52.282;10.560;2024-01-15T09:31:48;6.38;;;1.63;;
26946;SDS011;14501;52.282;10.560;2024-01-15T09:34:15;2.17;;;1.23;;
26946;SDS011;14501;52.282;10.560;2024-01-15T09:36:41;1.48;;;1.20;;
26946;SDS011;14501;52.282;10.560;2024-01-15T09:39:07;2.33;;;1.35;;
26946;SDS011;14501;52.282;10.560;2024-01-15T09:41:37;3.15;;;0.80;;
26946;SDS011;14501;52.282;10.560;2024-01-15T09:44:03;2.17;;;1.08;;
26946;SDS011;14501;52.282;10.560;2024-01-15T09:46:30;4.07;;;1.15;;
26946;SDS011;14501;52.282;10.560;2024-01-15T09:48:57;2.05;;;1.38;;
26946;SDS011;14501;52.282;10.560;2024-01-15T09:51:24;2.72;;;1.02;;
26946;SDS011;14501;52.282;10.560;2024-01-15T09:53:49;2.20;;;0.88;;
26946;SDS011;14501;52.282;10.560;2024-01-15T09:56:15;2.33;;;1.02;;
26946;SDS011;14501;52.282;10.560;2024-01-15T09:58:41;1.25;;;1.15;;
26946;SDS011;14501;52.282;10.560;2024-01-15T10:01:07;1.58;;;1.23;;
26946;SDS011;14501;52.282;10.560;2024-01-15T10:03:34;1.55;;;1.13;;
26946;SDS011;14501;52.282;10.560;2024-01-15T10:05:59;1.88;;;0.90;;
26946;SDS011;14501;52.282;10.560;2024-01-15T10:08:27;1.05;;;0.95;;
26946;SDS011;14501;52.282;10.560;2024-01-15T10:10:53;2.10;;;1.20;;
26946;SDS011;14501;52.282;10.560;2024-01-15T10:13:18;2.40;;;1.83;;
26946;SDS011;14501;52.282;10.560;2024-01-15T10:15:46;2.25;;;1.40;;
26946;SDS011;14501;52.282;10.560;2024-01-15T10:18:14;3.40;;;1.20;;
26946;SDS011;14501;52.282;10.560;2024-01-15T10:20:40;2.75;;;1.30;;
26946;SDS011;14501;52.282;10.560;2024-01-15T10:23:07;4.15;;;1.63;;
26946;SDS011;14501;52.282;10.560;2024-01-15T10:25:33;4.78;;;1.30;;
26946;SDS011;14501;52.282;10.560;2024-01-15T10:28:01;1.75;;;1.35;;
26946;SDS011;14501;52.282;10.560;2024-01-15T10:30:28;4.63;;;1.60;;
26946;SDS011;14501;52.282;10.560;2024-01-15T10:33:01;2.45;;;1.88;;
26946;SDS011;14501;52.282;10.560;2024-01-15T10:35:32;5.28;;;1.70;;
26946;SDS011;14501;52.282;10.560;2024-01-15T10:38:02;6.78;;;1.48;;
26946;SDS011;14501;52.282;10.560;2024-01-15T10:40:28;8.40;;;1.75;;
26946;SDS011;14501;52.282;10.560;2024-01-15T10:42:54;2.97;;;1.70;;
26946;SDS011;14501;52.282;10.560;2024-01-15T10:45:20;3.83;;;1.35;;
26946;SDS011;14501;52.282;10.560;2024-01-15T10:47:46;8.25;;;2.20;;
26946;SDS011;14501;52.282;10.560;2024-01-15T10:50:11;3.42;;;1.58;;
26946;SDS011;14501;52.282;10.560;2024-01-15T10:52:37;3.00;;;1.70;;
26946;SDS011;14501;52.282;10.560;2024-01-15T10:55:10;3.38;;;1.48;;
26946;SDS011;14501;52.282;10.560;2024-01-15T10:57:37;4.00;;;1.30;;
26946;SDS011;14501;52.282;10.560;2024-01-15T11:00:03;1.75;;;1.02;;
26946;SDS011;14501;52.282;10.560;2024-01-15T11:02:34;5.15;;;1.83;;
26946;SDS011;14501;52.282;10.560;2024-01-15T11:05:02;1.65;;;1.40;;
26946;SDS011;14501;52.282;10.560;2024-01-15T11:07:29;3.00;;;1.60;;
26946;SDS011;14501;52.282;10.560;2024-01-15T11:09:55;1.00;;;0.82;;
26946;SDS011;14501;52.282;10.560;2024-01-15T11:12:23;1.13;;;0.73;;
26946;SDS011;14501;52.282;10.560;2024-01-15T11:14:49;2.25;;;0.85;;
26946;SDS011;14501;52.282;10.560;2024-01-15T11:17:15;0.77;;;0.77;;
26946;SDS011;14501;52.282;10.560;2024-01-15T11:19:44;1.48;;;0.70;;
26946;SDS011;14501;52.282;10.560;2024-01-15T11:30:10;3.15;;;1.05;;
26946;SDS011;14501;52.282;10.560;2024-01-15T11:32:37;2.38;;;0.85;;
26946;SDS011;14501;52.282;10.560;2024-01-15T11:35:06;1.23;;;0.93;;
26946;SDS011;14501;52.282;10.560;2024-01-15T11:40:24;4.57;;;1.05;;
26946;SDS011;14501;52.282;10.560;2024-01-15T11:43:03;4.07;;;1.08;;
26946;SDS011;14501;52.282;10.560;2024-01-15T11:45:29;2.90;;;0.90;;
26946;SDS011;14501;52.282;10.560;2024-01-15T11:48:14;1.05;;;0.93;;
26946;SDS011;14501;52.282;10.560;2024-01-15T11:50:42;3.88;;;1.73;;
26946;SDS011;14501;52.282;10.560;2024-01-15T11:53:21;1.33;;;0.98;;
26946;SDS011;14501;52.282;10.560;2024-01-15T11:56:06;1.67;;;1.13;;
26946;SDS011;14501;52.282;10.560;2024-01-15T11:58:39;1.80;;;0.90;;
26946;SDS011;14501;52.282;10.560;2024-01-15T12:01:05;3.25;;;1.00;;
26946;SDS011;14501;52.282;10.560;2024-01-15T12:03:32;1.15;;;0.95;;
26946;SDS011;14501;52.282;10.560;2024-01-15T12:05:59;5.53;;;1.25;;
26946;SDS011;14501;52.282;10.560;2024-01-15T12:08:25;5.88;;;1.15;;
26946;SDS011;14501;52.282;10.560;2024-01-15T12:10:52;4.15;;;1.05;;
26946;SDS011;14501;52.282;10.560;2024-01-15T12:13:18;1.60;;;0.70;;
26946;SDS011;14501;52.282;10.560;2024-01-15T12:15:45;6.07;;;1.60;;
26946;SDS011;14501;52.282;10.560;2024-01-15T12:18:12;6.10;;;1.20;;
26946;SDS011;14501;52.282;10.560;2024-01-15T12:20:39;2.05;;;1.00;;
26946;SDS011;14501;52.282;10.560;2024-01-15T12:23:06;0.43;;;0.43;;
26946;SDS011;14501;52.282;10.560;2024-01-15T12:25:32;1.73;;;0.68;;
26946;SDS011;14501;52.282;10.560;2024-01-15T12:27:59;1.83;;;0.50;;
26946;SDS011;14501;52.282;10.560;2024-01-15T12:30:26;6.57;;;1.00;;
26946;SDS011;14501;52.282;10.560;2024-01-15T12:32:52;1.60;;;0.90;;
26946;SDS011;14501;52.282;10.560;2024-01-15T12:35:18;0.85;;;0.85;;
26946;SDS011;14501;52.282;10.560;2024-01-15T12:37:44;2.47;;;0.82;;
26946;SDS011;14501;52.282;10.560;2024-01-15T12:40:11;5.32;;;0.80;;
26946;SDS011;14501;52.282;10.560;2024-01-15T12:42:39;0.80;;;0.80;;
26946;SDS011;14501;52.282;10.560;2024-01-15T12:45:05;3.50;;;0.77;;
26946;SDS011;14501;52.282;10.560;2024-01-15T12:47:31;2.22;;;1.05;;
26946;SDS011;14501;52.282;10.560;2024-01-15T12:49:57;4.38;;;1.10;;
26946;SDS011;14501;52.282;10.560;2024-01-15T12:52:26;4.32;;;0.77;;
26946;SDS011;14501;52.282;10.560;2024-01-15T12:54:52;1.27;;;0.70;;
26946;SDS011;14501;52.282;10.560;2024-01-15T12:57:18;5.95;;;1.15;;
26946;SDS011;14501;52.282;10.560;2024-01-15T12:59:44;2.70;;;0.95;;
26946;SDS011;14501;52.282;10.560;2024-01-15T13:02:10;1.48;;;0.80;;
26946;SDS011;14501;52.282;10.560;2024-01-15T13:04:37;3.63;;;1.00;;
26946;SDS011;14501;52.282;10.560;2024-01-15T13:07:03;1.60;;;0.95;;
26946;SDS011;14501;52.282;10.560;2024-01-15T13:09:30;1.90;;;1.50;;
26946;SDS011;14501;52.282;10.560;2024-01-15T13:11:55;1.15;;;0.90;;
26946;SDS011;14501;52.282;10.560;2024-01-15T13:14:21;6.97;;;1.60;;
26946;SDS011;14501;52.282;10.560;2024-01-15T13:16:47;3.83;;;1.25;;
26946;SDS011;14501;52.282;10.560;2024-01-15T13:19:13;3.50;;;1.30;;
26946;SDS011;14501;52.282;10.560;2024-01-15T13:21:42;3.80;;;1.40;;
26946;SDS011;14501;52.282;10.560;2024-01-15T13:24:08;3.08;;;1.58;;
26946;SDS011;14501;52.282;10.560;2024-01-15T13:26:34;1.20;;;0.93;;
26946;SDS011;14501;52.282;10.560;2024-01-15T13:29:01;1.15;;;1.05;;
26946;SDS011;14501;52.282;10.560;2024-01-15T13:31:28;3.00;;;1.00;;
26946;SDS011;14501;52.282;10.560;2024-01-15T13:33:55;1.40;;;0.70;;
26946;SDS011;14501;52.282;10.560;2024-01-15T13:36:21;3.50;;;1.00;;
26946;SDS011;14501;52.282;10.560;2024-01-15T13:38:48;5.78;;;1.00;;
26946;SDS011;14501;52.282;10.560;2024-01-15T13:41:14;1.23;;;1.13;;
26946;SDS011;14501;52.282;10.560;2024-01-15T13:43:40;5.05;;;1.55;;
26946;SDS011;14501;52.282;10.560;2024-01-15T13:46:06;3.05;;;1.00;;
26946;SDS011;14501;52.282;10.560;2024-01-15T13:48:32;4.70;;;0.90;;
26946;SDS011;14501;52.282;10.560;2024-01-15T13:50:58;3.45;;;1.27;;
26946;SDS011;14501;52.282;10.560;2024-01-15T13:53:24;2.97;;;1.23;;
26946;SDS011;14501;52.282;10.560;2024-01-15T13:55:51;1.77;;;0.98;;
26946;SDS011;14501;52.282;10.560;2024-01-15T13:58:16;3.55;;;0.77;;
26946;SDS011;14501;52.282;10.560;2024-01-15T14:00:43;2.80;;;1.15;;
26946;SDS011;14501;52.282;10.560;2024-01-15T14:03:09;3.92;;;0.85;;
26946;SDS011;14501;52.282;10.560;2024-01-15T14:05:34;9.63;;;1.25;;
26946;SDS011;14501;52.282;10.560;2024-01-15T14:08:01;4.25;;;0.95;;
26946;SDS011;14501;52.282;10.560;2024-01-15T14:10:28;1.10;;;0.68;;
26946;SDS011;14501;52.282;10.560;2024-01-15T14:12:54;2.05;;;0.60;;
26946;SDS011;14501;52.282;10.560;2024-01-15T14:15:19;4.03;;;0.90;;
26946;SDS011;14501;52.282;10.560;2024-01-15T14:17:46;1.00;;;0.60;;
26946;SDS011;14501;52.282;10.560;2024-01-15T14:20:12;1.17;;;0.90;;
26946;SDS011;14501;52.282;10.560;2024-01-15T14:22:38;1.42;;;1.05;;
26946;SDS011;14501;52.282;10.560;2024-01-15T14:25:03;5.15;;;0.98;;
26946;SDS011;14501;52.282;10.560;2024-01-15T14:27:29;5.05;;;1.10;;
26946;SDS011;14501;52.282;10.560;2024-01-15T14:29:55;6.50;;;0.73;;
26946;SDS011;14501;52.282;10.560;2024-01-15T14:32:20;2.03;;;0.98;;
26946;SDS011;14501;52.282;10.560;2024-01-15T14:34:46;1.42;;;0.63;;
26946;SDS011;14501;52.282;10.560;2024-01-15T14:37:13;0.95;;;0.60;;
26946;SDS011;14501;52.282;10.560;2024-01-15T14:39:38;6.30;;;1.13;;
26946;SDS011;14501;52.282;10.560;2024-01-15T14:42:04;5.05;;;1.10;;